Goch-Asperden Airport

EDLG · Renania Settentrionale-Vestfalia, Germania

1 ottobre 2022

Tempo Codice Tempo metereologico Temp. Vista Base nuvolosa Vento METAR/SPECI
21:25
V
11 °C 10 km+ - 220° 220° 7 kt METAR EHDL 011925Z AUTO 22007KT 150V260 9999 NCD 11/10 Q1011 BLU
20:55
V
11 °C 10 km+ - 220° 220° 6 kt METAR EHDL 011855Z AUTO 22006KT 130V230 9999 NCD 11/10 Q1010 BLU
20:25
V
12 °C 10 km+ - 210° 210° 5 kt METAR EHDL 011825Z AUTO 21005KT 150V250 9999 NCD 12/09 Q1010 BLU
19:55
V
14 °C 10 km+ 4.900 ft 250° 250° 9 kt METAR EHDL 011755Z AUTO 25009KT 180V330 9999 FEW043 BKN049 OVC053 14/09 Q1009 BLU
19:25
V
12 °C 10 km+ - 240° 240° 5 kt METAR EHDL 011725Z AUTO 24005KT 200V290 9999 FEW070 SCT083 12/09 Q1009 BLU
18:55
V
14 °C 10 km+ - 260° 260° 7 kt METAR EHDL 011655Z AUTO 26007KT 210V300 9999 FEW032 14/10 Q1009 BLU
18:25
V
15 °C 10 km+ - 270° 270° 10 kt METAR EHDL 011625Z AUTO 27010KT 230V340 9999 NCD 15/11 Q1008 BLU
17:55
V
15 °C 10 km+ - 280° 280° 9 kt METAR EHDL 011555Z AUTO 28009KT 210V340 9999 FEW029 SCT064 15/10 Q1008 BLU
17:25
V
14 °C 10 km+ 5.300 ft 310° 310° 12 kt METAR EHDL 011525Z AUTO 31012KT 260V030 9999 -RADZ FEW015CB SCT036 BKN053 14/11 Q1007 BLU
16:55
V
17 °C 10 km+ 5.700 ft 280° 280° 8 kt METAR EHDL 011455Z AUTO 28008KT 220V030 9999 FEW033 SCT037 BKN057 17/10 Q1007 BLU
16:25
V
17 °C 10 km+ 6.500 ft 270° 270° 14 kt METAR EHDL 011425Z AUTO 27014KT 210V350 9999 SCT060 OVC065 17/10 Q1006 BLU
15:55
V
17 °C 10 km+ 6.500 ft 280° 280° 12 kt METAR EHDL 011355Z AUTO 28012KT 200V360 9999 FEW051 BKN065 OVC071 17/10 Q1006 BLU
15:25
V
17 °C 10 km+ - 270° 270° 13 kt METAR EHDL 011325Z AUTO 27013KT 190V340 9999 FEW063 SCT073 17/11 Q1005 BLU
14:55
V
16 °C 10 km+ 3.300 ft Var Var 11 kt METAR EHDL 011255Z AUTO VRB11KT 9999 FEW015CB SCT025 BKN033 16/12 Q1005 BLU
14:25
M
15 °C 10 km+ 2.700 ft 290° 290° 11 kt METAR EHDL 011225Z AUTO 29011KT 240V010 9999 -RA FEW023 BKN027 BKN035 15/12 Q1005 BLU
13:55
M
18 °C 10 km+ 2.900 ft 260° 260° 16 kt METAR EHDL 011155Z AUTO 26016KT 190V350 9999 SCT026 BKN029 BKN037 18/12 Q1004 BLU
13:25
V
17 °C 10 km+ - Var Var 14 kt METAR EHDL 011125Z AUTO VRB14KT 9999 FEW019CB 17/12 Q1004 BLU
12:55
V
16 °C 10 km+ - 260° 260° 10 kt METAR EHDL 011055Z AUTO 26010KT 200V310 9999 FEW015CB SCT074 16/13 Q1003 REDZ BLU
12:25
V
16 °C 10 km+ 8.900 ft 230° 230° 10 kt METAR EHDL 011025Z AUTO 23010KT 150V280 9999 FEW008 SCT016 BKN089 16/14 Q1003 WHT
11:55
V
13 °C 10 km+ 3.000 ft 220° 220° 8 kt METAR EHDL 010955Z AUTO 22008KT 110V270 9999 -RA FEW007 FEW015CB SCT027 BKN030 13/12 Q1003 RERAUPRA BLU
11:25
V
14 °C 10 km+ 5.200 ft 230° 230° 8 kt METAR EHDL 010925Z AUTO 23008KT 160V280 9999 -RA FEW015CB SCT029 BKN052 14/13 Q1003 RERA BLU
10:55
M
14 °C 10 km+ 1.300 ft 220° 220° 8 kt METAR EHDL 010855Z AUTO 22008KT 170V290 9999 +DZRA FEW007 SCT009 BKN013 FEW015CB 14/13 Q1002 GRN
10:25
I
14 °C 10 km+ 700 ft 230° 230° 9 kt METAR EHDL 010825Z AUTO 23009KT 170V280 9999 SCT006 BKN007 BKN009 FEW015CB 14/13 Q1002 YLO
09:55
I
14 °C 10 km+ 600 ft 230° 230° 11 kt METAR EHDL 010755Z AUTO 23011KT 170V310 9999 BKN006 BKN007 OVC008 14/13 Q1001 YLO
09:25
I
13 °C 10 km+ 500 ft 220° 220° 9 kt METAR EHDL 010725Z AUTO 22009KT 150V270 9999 FEW004 BKN005 BKN006 13/12 Q1001 YLO
08:55
I
12 °C 10 km+ 700 ft 220° 220° 9 kt METAR EHDL 010655Z AUTO 22009KT 160V310 9999 SCT006 OVC007 12/12 Q1001 YLO
08:25
I
12 °C 10 km+ 900 ft 220° 220° 10 kt METAR EHDL 010625Z AUTO 22010KT 140V310 9999 FEW006 SCT007 BKN009 12/11 Q1001 GRN
07:55
M
12 °C 10 km+ 1.100 ft 220° 220° 11 kt METAR EHDL 010555Z AUTO 22011KT 150V280 9999 FEW006 SCT009 BKN011 12/11 Q1000 GRN
07:25
I
12 °C 10 km+ 600 ft Var Var 11 kt METAR EHDL 010525Z AUTO VRB11KT 9999 BKN006 BKN007 OVC009 12/11 Q1000 REDZ YLO
06:55
I
12 °C 10 km+ 800 ft 210° 210° 12 kt METAR EHDL 010455Z AUTO 21012KT 150V300 9999 SCT007 OVC008 12/11 Q1000 GRN
06:25
I
11 °C 10 km+ 600 ft 210° 210° 14 kt METAR EHDL 010425Z AUTO 21014KT 130V270 9999 -RADZ FEW005 BKN006 BKN008 11/11 Q0999 YLO
05:55
I
11 °C 10 km+ 600 ft 200° 200° 13 kt METAR EHDL 010355Z AUTO 20013KT 120V280 9999 FEW005 BKN006 OVC008 11/11 Q0999 REDZ YLO
05:25
I
11 °C 5 km 600 ft 200° 200° 16 - 26 kt METAR EHDL 010325Z AUTO 20016G26KT 140V270 5000 DZ FEW004 BKN006 BKN007 11/10 Q0999 YLO
04:55
I
11 °C 3,8 km 900 ft 190° 190° 15 kt METAR EHDL 010255Z AUTO 19015KT 120V260 3800 RA FEW004 SCT007 BKN009 FEW015CB 11/10 Q1000 GRN
04:25
I
11 °C 4,2 km 1.800 ft 190° 190° 17 - 27 kt METAR EHDL 010225Z AUTO 19017G27KT 120V270 4200 SHRA FEW005 SCT007 SCT015CB BKN018 11/10 Q1000 GRN
03:55
M
11 °C 6 km 1.400 ft 180° 180° 14 - 25 kt METAR EHDL 010155Z AUTO 18014G25KT 110V250 6000 SHRA FEW007 SCT008 BKN014 BKN015CB 11/10 Q1001 GRN
03:25
M
11 °C 6 km 1.500 ft 180° 180° 14 kt METAR EHDL 010125Z AUTO 18014KT 110V230 6000 RA FEW006 SCT008 BKN015CB 11/10 Q1001 GRN
02:55
M
11 °C 7 km 1.300 ft 180° 180° 12 kt METAR EHDL 010055Z AUTO 18012KT 120V250 7000 RA FEW007 SCT011 BKN013 BKN015CB 11/10 Q1002 GRN
02:25
M
11 °C 8 km 1.500 ft Var Var 11 kt METAR EHDL 010025Z AUTO VRB11KT 8000 RA FEW010 BKN015CB OVC019 11/10 Q1003 WHT
01:55
M
11 °C 10 km+ 1.500 ft 180° 180° 11 kt METAR EHDL 302355Z AUTO 18011KT 110V240 9999 RA BKN015CB SCT020 BKN041 11/10 Q1003 WHT
01:25
M
11 °C 10 km+ 1.500 ft 180° 180° 11 kt METAR EHDL 302325Z AUTO 18011KT 090V240 9999 -SHRA BKN015CB SCT061 BKN066 11/09 Q1004 WHT
00:55
V
12 °C 10 km+ 6.200 ft 180° 180° 12 kt METAR EHDL 302255Z AUTO 18012KT 100V250 9999 -RA FEW055 OVC062 12/09 Q1004 BLU
00:25
V
13 °C 10 km+ 6.600 ft 190° 190° 12 kt METAR EHDL 302225Z AUTO 19012KT 110V260 9999 DZRA FEW057 OVC066 13/08 Q1004 BLU

30 settembre 2022

Tempo Codice Tempo metereologico Temp. Vista Base nuvolosa Vento METAR/SPECI
23:55
V
13 °C 10 km+ 5.800 ft 190° 190° 13 kt METAR EHDL 302155Z AUTO 19013KT 110V280 9999 BKN058 BKN064 OVC069 13/07 Q1005 BLU
23:25
V
13 °C 10 km+ 10.000 ft 190° 190° 12 kt METAR EHDL 302125Z AUTO 19012KT 120V250 9999 FEW062 OVC100 13/07 Q1005 BLU
22:55
V
13 °C 10 km+ 11.000 ft 190° 190° 13 kt METAR EHDL 302055Z AUTO 19013KT 120V250 9999 OVC110 13/07 Q1005 BLU
22:25
V
14 °C 10 km+ 13.000 ft 180° 180° 13 kt METAR EHDL 302025Z AUTO 18013KT 100V250 9999 OVC130 14/07 Q1006 BLU
21:55
V
14 °C 10 km+ 15.000 ft 190° 190° 11 kt METAR EHDL 301955Z AUTO 19011KT 120V270 9999 OVC150 14/07 Q1006 BLU
21:25
V
13 °C 10 km+ 19.000 ft 180° 180° 9 kt METAR EHDL 301925Z AUTO 18009KT 120V250 9999 OVC190 13/08 Q1007 BLU
20:55
V
13 °C 10 km+ 20.000 ft 180° 180° 8 kt METAR EHDL 301855Z AUTO 18008KT 120V230 9999 OVC200 13/08 Q1007 BLU
20:25
V
13 °C 10 km+ 22.000 ft 180° 180° 8 kt METAR EHDL 301825Z AUTO 18008KT 110V260 9999 FEW058 OVC220 13/08 Q1007 BLU
19:55
V
13 °C 10 km+ 23.000 ft 180° 180° 7 kt METAR EHDL 301755Z AUTO 18007KT 120V230 9999 FEW060 OVC230 13/08 Q1007 BLU
19:25
V
14 °C 10 km+ 25.000 ft 190° 190° 7 kt METAR EHDL 301725Z AUTO 19007KT 130V230 9999 FEW043 OVC250 14/08 Q1007 BLU
18:55
V
14 °C 10 km+ 26.000 ft 200° 200° 8 kt METAR EHDL 301655Z AUTO 20008KT 140V250 9999 BKN260 14/08 Q1008 BLU
18:25
V
16 °C 10 km+ 6.200 ft 200° 200° 10 kt METAR EHDL 301625Z AUTO 20010KT 140V260 9999 FEW048 SCT057 BKN062 16/08 Q1008 BLU
17:55
V
16 °C 10 km+ 6.200 ft 200° 200° 9 kt METAR EHDL 301555Z AUTO 20009KT 140V270 9999 FEW040 BKN062 BKN260 16/08 Q1008 BLU
17:25
V
16 °C 10 km+ 6.200 ft 200° 200° 9 kt METAR EHDL 301525Z AUTO 20009KT 120V260 9999 FEW038 BKN062 BKN270 16/08 Q1008 BLU
16:55
V
16 °C 10 km+ 6.000 ft 200° 200° 12 kt METAR EHDL 301455Z AUTO 20012KT 130V270 9999 FEW035 SCT040 OVC060 16/08 Q1008 BLU
16:25
V
16 °C 10 km+ 4.600 ft 200° 200° 9 kt METAR EHDL 301425Z AUTO 20009KT 130V300 9999 SCT035 SCT041 BKN046 16/08 Q1008 BLU
15:55
V
16 °C 10 km+ 3.500 ft 210° 210° 9 kt METAR EHDL 301355Z AUTO 21009KT 130V280 9999 BKN035 BKN039 BKN050 16/08 Q1008 BLU
15:25
V
17 °C 10 km+ 4.000 ft 190° 190° 13 kt METAR EHDL 301325Z AUTO 19013KT 110V270 9999 SCT035 BKN040 17/08 Q1008 BLU
14:55
V
17 °C 10 km+ 3.200 ft 200° 200° 11 kt METAR EHDL 301255Z AUTO 20011KT 120V280 9999 BKN032 BKN036 17/08 Q1009 BLU
14:25
V
16 °C 10 km+ - 220° 220° 11 kt METAR EHDL 301225Z AUTO 22011KT 110V280 9999 NCD 16/08 Q1009 BLU
13:55
V
16 °C 10 km+ - 210° 210° 12 kt METAR EHDL 301155Z AUTO 21012KT 120V270 9999 NCD 16/08 Q1009 BLU
13:25
V
16 °C 10 km+ - 200° 200° 12 kt METAR EHDL 301125Z AUTO 20012KT 140V280 9999 FEW028 16/08 Q1009 BLU
12:55
V
16 °C 10 km+ - 210° 210° 10 kt METAR EHDL 301055Z AUTO 21010KT 140V270 9999 NCD 16/08 Q1009 BLU
12:25
V
15 °C 10 km+ - 200° 200° 9 kt METAR EHDL 301025Z AUTO 20009KT 120V290 9999 NCD 15/08 Q1009 BLU
11:55
V
14 °C 10 km+ - Var Var 8 kt METAR EHDL 300955Z AUTO VRB08KT 9999 NCD 14/08 Q1009 BLU
11:25
V
14 °C 10 km+ - Var Var 7 kt METAR EHDL 300925Z AUTO VRB07KT 9999 NCD 14/08 Q1009 BLU
10:55
V
12 °C 10 km+ - 200° 200° 6 kt METAR EHDL 300855Z AUTO 20006KT 120V250 9999 NCD 12/08 Q1009 BLU
10:25
V
11 °C 10 km+ - 200° 200° 6 kt METAR EHDL 300825Z AUTO 20006KT 110V260 9999 NCD 11/08 Q1009 BLU
09:55
V
10 °C 8 km - 180° 180° 3 kt METAR EHDL 300755Z AUTO 18003KT 090V230 8000 BR NCD 10/08 Q1009 BLU
09:25
V
9 °C 8 km - Var Var 1 kt METAR EHDL 300725Z AUTO VRB01KT 8000 BR NCD 09/07 Q1009 BLU
08:55
V
7 °C 9 km - Var Var 1 kt METAR EHDL 300655Z AUTO VRB01KT 9000 BR SCT062 07/07 Q1009 BLU
08:25
V
3 °C 10 km+ 6.300 ft 130° 130° 2 kt METAR EHDL 300625Z AUTO 13002KT 9999 BKN063 03/03 Q1009 BLU
07:55
V
2 °C 10 km+ - 120° 120° 2 kt METAR EHDL 300555Z AUTO 12002KT 9999 NCD 02/01 Q1009 BLU
07:25
V
2 °C 10 km+ - 130° 130° 2 kt METAR EHDL 300525Z AUTO 13002KT 9999 NCD 02/02 Q1009 BLU
06:55
V
2 °C 10 km+ - 140° 140° 2 kt METAR EHDL 300455Z AUTO 14002KT 9999 NCD 02/01 Q1008 BLU
06:25
V
2 °C 10 km+ - 140° 140° 1 kt METAR EHDL 300425Z AUTO 14001KT 9999 NCD 02/02 Q1008 BLU
05:55
V
2 °C 10 km+ - Var Var 1 kt METAR EHDL 300355Z AUTO VRB01KT 9999 NCD 02/01 Q1008 BLU
05:25
V
2 °C 10 km+ - 100° 100° 2 kt METAR EHDL 300325Z AUTO 10002KT 9999 NCD 02/01 Q1008 BLU
04:55
V
2 °C 10 km+ - 110° 110° 1 kt METAR EHDL 300255Z AUTO 11001KT 9999 NCD 02/02 Q1008 BLU
04:25
V
2 °C 10 km+ - 110° 110° 1 kt METAR EHDL 300225Z AUTO 11001KT 9999 NCD 02/01 Q1008 BLU
03:55
V
3 °C 10 km+ - 120° 120° 2 kt METAR EHDL 300155Z AUTO 12002KT 9999 NCD 03/02 Q1008 BLU
03:25
V
2 °C 10 km+ - 120° 120° 1 kt METAR EHDL 300125Z AUTO 12001KT 9999 NCD 02/02 Q1008 BLU
02:55
V
3 °C 10 km+ - 120° 120° 1 kt METAR EHDL 300055Z AUTO 12001KT 9999 NCD 03/03 Q1008 BLU
02:25
V
3 °C 10 km+ - 120° 120° 1 kt METAR EHDL 300025Z AUTO 12001KT 9999 NCD 03/02 Q1007 BLU RMK CB INFO NOT AVBL
01:55
V
4 °C 10 km+ - 110° 110° 1 kt METAR EHDL 292355Z AUTO 11001KT 9999 NCD 04/03 Q1007 BLU
01:25
V
4 °C 10 km+ - 090° 090° 2 kt METAR EHDL 292325Z AUTO 09002KT 9999 NCD 04/03 Q1007 BLU
00:55
V
4 °C 10 km+ 9.100 ft 120° 120° 1 kt METAR EHDL 292255Z AUTO 12001KT 9999 BKN091 04/04 Q1007 BLU
00:25
V
5 °C 10 km+ - 130° 130° 2 kt METAR EHDL 292225Z AUTO 13002KT 9999 SCT091 05/04 Q1007 BLU

29 settembre 2022

Tempo Codice Tempo metereologico Temp. Vista Base nuvolosa Vento METAR/SPECI
23:55
V
5 °C 10 km+ 8.900 ft 120° 120° 1 kt METAR EHDL 292155Z AUTO 12001KT 9999 OVC089 05/04 Q1007 BLU
23:25
V
5 °C 10 km+ 15.000 ft 100° 100° 2 kt METAR EHDL 292125Z AUTO 10002KT 9999 OVC150 05/05 Q1007 BLU
22:55
V
6 °C 10 km+ 14.000 ft 120° 120° 1 kt METAR EHDL 292055Z AUTO 12001KT 9999 OVC140 06/05 Q1007 BLU
22:25
V
6 °C 10 km+ - 130° 130° 1 kt METAR EHDL 292025Z AUTO 13001KT 9999 SCT170 06/04 Q1006 BLU
21:55
V
6 °C 10 km+ - Var 000° 0 kt METAR EHDL 291955Z AUTO 00000KT 9999 NCD 06/06 Q1006 BLU
21:25
V
7 °C 10 km+ - 360° 360° 1 kt METAR EHDL 291925Z AUTO 36001KT 9999 SCT180 07/06 Q1006 BLU
20:55
V
8 °C 10 km+ - Var Var 2 kt METAR EHDL 291855Z AUTO VRB02KT 9999 NCD 08/07 Q1005 BLU
20:25
V
9 °C 10 km+ - Var Var 1 kt METAR EHDL 291825Z AUTO VRB01KT 9999 SCT260 09/08 Q1005 BLU
19:55
V
11 °C 10 km+ - 340° 340° 2 kt METAR EHDL 291755Z AUTO 34002KT 9999 SCT270 11/08 Q1005 BLU
19:25
V
13 °C 10 km+ 3.400 ft Var Var 2 kt METAR EHDL 291725Z AUTO VRB02KT 9999 BKN034 BKN052 BKN067 13/08 Q1005 BLU
18:55
V
14 °C 10 km+ 3.400 ft 040° 040° 4 kt METAR EHDL 291655Z AUTO 04004KT 320V100 9999 OVC034 14/08 Q1004 BLU
18:25
V
15 °C 10 km+ 3.500 ft 010° 010° 5 kt METAR EHDL 291625Z AUTO 01005KT 320V060 9999 OVC035 15/07 Q1004 BLU
17:55
V
14 °C 10 km+ 3.700 ft 290° 290° 5 kt METAR EHDL 291555Z AUTO 29005KT 290V100 9999 BKN037 OVC041 14/07 Q1004 BLU
17:25
V
15 °C 10 km+ 6.300 ft Var Var 3 kt METAR EHDL 291525Z AUTO VRB03KT 9999 FEW047 OVC063 15/06 Q1003 BLU
16:55
V
15 °C 10 km+ 24.000 ft Var Var 2 kt METAR EHDL 291455Z AUTO VRB02KT 9999 SCT036 OVC240 15/06 Q1003 BLU
Dati più vecchi

Noi e le terze parti seguiamo il tuo comportamento in internet sul nostro sito web con i cookie. Se continui, riteniamo che tu sia d'accordo con la nostra politica sui cookie. Per saperne di più